PWSweather.com
Personal Weather Stations
Station Observations
MANRESA
Manresa Catalonia, ManresaES 08243

Manresa CataloniaManresaES 08243

Lat: 41.731, Lon: 1.834

Elevation: 824

Station Type: Oregon Scientífic WMR-200

Latest ConditionsUpdated 10:12:01 PM GMT+01:01 Thursday, Sep 21, 2017
Currently Today's Max Today's Min Today's Average
Temperature 68.0°F20.0°C 78.4°F25.8°C 52.5°F11.4°C 65.0°F18.3°C
Dew Point 60.1°F15.6°C 61.2°F16.2°C 43.2°F6.2°C 49.8°F9.9°C
Winds Calm Calm 11.2 mph S18.0 kmh S - 2.5 mph 4.0 kmh
Wind Gusts -- 12.8 mph20.6 kmh - -
Humidity 76% 78% 38% 60%
Pressure 30.04 in1017.3 mb 30.07 in1018.3 mb 29.96 in1014.6 mb -
Hour Temp Dew Point Humidity Winds Wind Gusts Pressure Precip Precip Rate Daily Precip Total
10:12 PM 68.0°F20.0°C 60.1°F15.6°C 76% Calm Calm -- 30.04 in1017.3 mb - 0.00 in0.0 mm 0.00 in0.0 mm
10:07 PM 68.0°F20.0°C 60.4°F15.8°C 77% Calm Calm -- 30.04 in1017.3 mb - 0.00 in0.0 mm 0.00 in0.0 mm
10:02 PM 68.2°F20.1°C 60.6°F15.9°C 77% Calm Calm -- 30.07 in1018.3 mb - 0.00 in0.0 mm 0.00 in0.0 mm
09:57 PM 68.2°F20.1°C 60.6°F15.9°C 77% Calm Calm -- 30.07 in1018.3 mb - 0.00 in0.0 mm 0.00 in0.0 mm
09:52 PM 68.4°F20.2°C 60.8°F16.0°C 77% Calm Calm -- 30.07 in1018.3 mb - 0.00 in0.0 mm 0.00 in0.0 mm
09:47 PM 68.4°F20.2°C 61.2°F16.2°C 78% Calm Calm -- 30.04 in1017.3 mb - 0.00 in0.0 mm 0.00 in0.0 mm
09:42 PM 68.4°F20.2°C 60.8°F16.0°C 77% Calm Calm -- 30.04 in1017.3 mb - 0.00 in0.0 mm 0.00 in0.0 mm
09:37 PM 68.5°F20.3°C 61.0°F16.1°C 77% Calm Calm -- 30.04 in1017.3 mb - 0.00 in0.0 mm 0.00 in0.0 mm
09:32 PM 68.5°F20.3°C 60.6°F15.9°C 76% 2.5 mph S4.0 kmh S -- 30.04 in1017.3 mb - 0.00 in0.0 mm 0.00 in0.0 mm
09:27 PM 68.7°F20.4°C 60.8°F16.0°C 76% 2.5 mph SW4.0 kmh SW 2.2 mph3.5 kmh 30.04 in1017.3 mb - 0.00 in0.0 mm 0.00 in0.0 mm
09:22 PM 68.7°F20.4°C 60.8°F16.0°C 76% Calm Calm 2.7 mph4.3 kmh 30.04 in1017.3 mb - 0.00 in0.0 mm 0.00 in0.0 mm
09:17 PM 68.9°F20.5°C 60.6°F15.9°C 75% 4.9 mph S7.9 kmh S 5.8 mph9.3 kmh 30.04 in1017.3 mb - 0.00 in0.0 mm 0.00 in0.0 mm
09:12 PM 68.9°F20.5°C 60.6°F15.9°C 75% 2.2 mph SE3.5 kmh SE 3.1 mph5.0 kmh 30.04 in1017.3 mb - 0.00 in0.0 mm 0.00 in0.0 mm
09:07 PM 69.1°F20.6°C 60.4°F15.8°C 74% 2.5 mph S4.0 kmh S 5.6 mph9.0 kmh 30.04 in1017.3 mb - 0.00 in0.0 mm 0.00 in0.0 mm
09:02 PM 69.3°F20.7°C 60.3°F15.7°C 73% 2.9 mph S4.7 kmh S 5.8 mph9.3 kmh 30.01 in1016.3 mb - 0.00 in0.0 mm 0.00 in0.0 mm
08:57 PM 69.3°F20.7°C 60.3°F15.7°C 73% 4.5 mph SE7.2 kmh SE 3.6 mph5.8 kmh 30.01 in1016.3 mb - 0.00 in0.0 mm 0.00 in0.0 mm
08:52 PM 69.4°F20.8°C 60.1°F15.6°C 72% 3.8 mph SSW6.1 kmh SSW 3.6 mph5.8 kmh 30.01 in1016.3 mb - 0.00 in0.0 mm 0.00 in0.0 mm
08:47 PM 69.4°F20.8°C 60.1°F15.6°C 72% 2.7 mph S4.3 kmh S 4.3 mph6.9 kmh 30.01 in1016.3 mb - 0.00 in0.0 mm 0.00 in0.0 mm
08:42 PM 69.6°F20.9°C 59.7°F15.4°C 71% 2.0 mph S3.2 kmh S 3.6 mph5.8 kmh 30.01 in1016.3 mb - 0.00 in0.0 mm 0.00 in0.0 mm
08:37 PM 69.6°F20.9°C 59.7°F15.4°C 71% 3.1 mph SE5.0 kmh SE -- 30.01 in1016.3 mb - 0.00 in0.0 mm 0.00 in0.0 mm
08:32 PM 69.8°F21.0°C 59.9°F15.5°C 71% 3.8 mph S6.1 kmh S 5.4 mph8.7 kmh 30.01 in1016.3 mb - 0.00 in0.0 mm 0.00 in0.0 mm
08:27 PM 70.0°F21.1°C 59.7°F15.4°C 70% 4.9 mph SE7.9 kmh SE 3.8 mph6.1 kmh 30.01 in1016.3 mb - 0.00 in0.0 mm 0.00 in0.0 mm
08:22 PM 70.0°F21.1°C 59.7°F15.4°C 70% 5.4 mph SSW8.7 kmh SSW 2.7 mph4.3 kmh 30.01 in1016.3 mb - 0.00 in0.0 mm 0.00 in0.0 mm
08:17 PM 70.2°F21.2°C 59.5°F15.3°C 69% 5.4 mph S8.7 kmh S 3.8 mph6.1 kmh 30.01 in1016.3 mb - 0.00 in0.0 mm 0.00 in0.0 mm
08:12 PM 70.3°F21.3°C 59.7°F15.4°C 69% 6.7 mph SE10.8 kmh SE 6.9 mph11.1 kmh 30.01 in1016.3 mb - 0.00 in0.0 mm 0.00 in0.0 mm
08:07 PM 70.3°F21.3°C 59.4°F15.2°C 68% 4.7 mph S7.6 kmh S 3.6 mph5.8 kmh 30.01 in1016.3 mb - 0.00 in0.0 mm 0.00 in0.0 mm
08:02 PM 70.5°F21.4°C 59.0°F15.0°C 67% 4.0 mph SE6.4 kmh SE 5.6 mph9.0 kmh 30.01 in1016.3 mb - 0.00 in0.0 mm 0.00 in0.0 mm
07:57 PM 70.7°F21.5°C 59.2°F15.1°C 67% 1.3 mph S2.1 kmh S 3.1 mph5.0 kmh 30.01 in1016.3 mb - 0.00 in0.0 mm 0.00 in0.0 mm
07:52 PM 70.7°F21.5°C 59.2°F15.1°C 67% Calm Calm -- 30.01 in1016.3 mb - 0.00 in0.0 mm 0.00 in0.0 mm
07:47 PM 70.9°F21.6°C 59.0°F15.0°C 66% 4.9 mph S7.9 kmh S 3.6 mph5.8 kmh 29.99 in1015.6 mb - 0.00 in0.0 mm 0.00 in0.0 mm
07:42 PM 70.9°F21.6°C 59.0°F15.0°C 66% 1.1 mph SW1.8 kmh SW 2.9 mph4.7 kmh 29.99 in1015.6 mb - 0.00 in0.0 mm 0.00 in0.0 mm
07:37 PM 71.1°F21.7°C 59.2°F15.1°C 66% Calm Calm -- 29.99 in1015.6 mb - 0.00 in0.0 mm 0.00 in0.0 mm
07:32 PM 71.2°F21.8°C 58.8°F14.9°C 65% 1.1 mph SW1.8 kmh SW 4.0 mph6.4 kmh 29.99 in1015.6 mb - 0.00 in0.0 mm 0.00 in0.0 mm
07:27 PM 71.4°F21.9°C 59.0°F15.0°C 65% 2.5 mph SW4.0 kmh SW 3.6 mph5.8 kmh 29.99 in1015.6 mb - 0.00 in0.0 mm 0.00 in0.0 mm
07:22 PM 71.6°F22.0°C 58.8°F14.9°C 64% 3.4 mph SSW5.5 kmh SSW 5.4 mph8.7 kmh 29.99 in1015.6 mb - 0.00 in0.0 mm 0.00 in0.0 mm
07:17 PM 71.8°F22.1°C 58.5°F14.7°C 63% 3.8 mph SSW6.1 kmh SSW 4.0 mph6.4 kmh 29.96 in1014.6 mb - 0.00 in0.0 mm 0.00 in0.0 mm
07:12 PM 72.0°F22.2°C 58.3°F14.6°C 62% 6.3 mph SSE10.1 kmh SSE 7.4 mph11.9 kmh 29.96 in1014.6 mb - 0.00 in0.0 mm 0.00 in0.0 mm
07:07 PM 72.1°F22.3°C 58.5°F14.7°C 62% 4.3 mph S6.9 kmh S 5.4 mph8.7 kmh 29.96 in1014.6 mb - 0.00 in0.0 mm 0.00 in0.0 mm
07:02 PM 72.3°F22.4°C 58.1°F14.5°C 61% 5.6 mph SW9.0 kmh SW 5.8 mph9.3 kmh 29.99 in1015.6 mb - 0.00 in0.0 mm 0.00 in0.0 mm
06:57 PM 72.7°F22.6°C 57.9°F14.4°C 60% 5.4 mph SE8.7 kmh SE 5.6 mph9.0 kmh 29.99 in1015.6 mb - 0.00 in0.0 mm 0.00 in0.0 mm
06:52 PM 72.9°F22.7°C 57.7°F14.3°C 59% 5.4 mph S8.7 kmh S 4.3 mph6.9 kmh 29.99 in1015.6 mb - 0.00 in0.0 mm 0.00 in0.0 mm
06:47 PM 73.0°F22.8°C 57.4°F14.1°C 58% 5.4 mph S8.7 kmh S 10.3 mph16.6 kmh 29.99 in1015.6 mb - 0.00 in0.0 mm 0.00 in0.0 mm
06:42 PM 73.0°F22.8°C 57.4°F14.1°C 58% 7.2 mph S11.6 kmh S 6.3 mph10.1 kmh 29.99 in1015.6 mb - 0.00 in0.0 mm 0.00 in0.0 mm
06:37 PM 73.2°F22.9°C 57.0°F13.9°C 57% 4.9 mph SE7.9 kmh SE 4.9 mph7.9 kmh 29.99 in1015.6 mb - 0.00 in0.0 mm 0.00 in0.0 mm
06:32 PM 73.4°F23.0°C 57.2°F14.0°C 57% 7.2 mph S11.6 kmh S 6.3 mph10.1 kmh 29.99 in1015.6 mb - 0.00 in0.0 mm 0.00 in0.0 mm
06:27 PM 73.6°F23.1°C 56.8°F13.8°C 56% 9.6 mph S15.4 kmh S 10.5 mph16.9 kmh 29.99 in1015.6 mb - 0.00 in0.0 mm 0.00 in0.0 mm
06:22 PM 73.8°F23.2°C 57.0°F13.9°C 56% 8.7 mph SE14.0 kmh SE 10.3 mph16.6 kmh 29.99 in1015.6 mb - 0.00 in0.0 mm 0.00 in0.0 mm
06:17 PM 74.1°F23.4°C 56.8°F13.8°C 55% 8.7 mph SE14.0 kmh SE 8.5 mph13.7 kmh 29.99 in1015.6 mb - 0.00 in0.0 mm 0.00 in0.0 mm
06:12 PM 74.3°F23.5°C 56.7°F13.7°C 54% 5.4 mph SE8.7 kmh SE 6.0 mph9.7 kmh 29.99 in1015.6 mb - 0.00 in0.0 mm 0.00 in0.0 mm
06:07 PM 74.5°F23.6°C 56.3°F13.5°C 53% 4.5 mph SSW7.2 kmh SSW 2.7 mph4.3 kmh 29.99 in1015.6 mb - 0.00 in0.0 mm 0.00 in0.0 mm
06:02 PM 74.8°F23.8°C 56.1°F13.4°C 52% 5.8 mph SE9.3 kmh SE 8.9 mph14.3 kmh 29.99 in1015.6 mb - 0.00 in0.0 mm 0.00 in0.0 mm
05:57 PM 74.8°F23.8°C 56.1°F13.4°C 52% 4.7 mph S7.6 kmh S 3.8 mph6.1 kmh 29.99 in1015.6 mb - 0.00 in0.0 mm 0.00 in0.0 mm
05:52 PM 75.0°F23.9°C 55.8°F13.2°C 51% 6.9 mph SE11.1 kmh SE 7.8 mph12.6 kmh 29.99 in1015.6 mb - 0.00 in0.0 mm 0.00 in0.0 mm
05:47 PM 75.0°F23.9°C 55.0°F12.8°C 50% 11.2 mph S18.0 kmh S 9.4 mph15.1 kmh 29.99 in1015.6 mb - 0.00 in0.0 mm 0.00 in0.0 mm
05:42 PM 75.2°F24.0°C 54.7°F12.6°C 49% 11.2 mph S18.0 kmh S 9.6 mph15.4 kmh 29.99 in1015.6 mb - 0.00 in0.0 mm 0.00 in0.0 mm
05:37 PM 75.6°F24.2°C 54.5°F12.5°C 48% 9.2 mph S14.8 kmh S 8.7 mph14.0 kmh 29.99 in1015.6 mb - 0.00 in0.0 mm 0.00 in0.0 mm
05:32 PM 75.7°F24.3°C 54.1°F12.3°C 47% 10.3 mph S16.6 kmh S 7.8 mph12.6 kmh 29.96 in1014.6 mb - 0.00 in0.0 mm 0.00 in0.0 mm
05:27 PM 76.1°F24.5°C 53.8°F12.1°C 46% 9.4 mph S15.1 kmh S 7.6 mph12.2 kmh 29.96 in1014.6 mb - 0.00 in0.0 mm 0.00 in0.0 mm
05:22 PM 76.3°F24.6°C 54.0°F12.2°C 46% 10.3 mph S16.6 kmh S 8.5 mph13.7 kmh 29.96 in1014.6 mb - 0.00 in0.0 mm 0.00 in0.0 mm
05:17 PM 76.5°F24.7°C 53.6°F12.0°C 45% 10.1 mph S16.3 kmh S 11.9 mph19.2 kmh 29.96 in1014.6 mb - 0.00 in0.0 mm 0.00 in0.0 mm
05:12 PM 76.6°F24.8°C 53.8°F12.1°C 45% 8.1 mph S13.0 kmh S 6.3 mph10.1 kmh 29.96 in1014.6 mb - 0.00 in0.0 mm 0.00 in0.0 mm
05:07 PM 77.0°F25.0°C 53.4°F11.9°C 44% 3.8 mph SE6.1 kmh SE 4.3 mph6.9 kmh 29.96 in1014.6 mb - 0.00 in0.0 mm 0.00 in0.0 mm
05:02 PM 77.0°F25.0°C 53.4°F11.9°C 44% 6.9 mph S11.1 kmh S 5.1 mph8.2 kmh 29.96 in1014.6 mb - 0.00 in0.0 mm 0.00 in0.0 mm
04:57 PM 77.2°F25.1°C 53.6°F12.0°C 44% 6.3 mph SE10.1 kmh SE 8.7 mph14.0 kmh 29.96 in1014.6 mb - 0.00 in0.0 mm 0.00 in0.0 mm
04:52 PM 77.2°F25.1°C 52.9°F11.6°C 43% 8.3 mph SE13.4 kmh SE 8.3 mph13.4 kmh 29.96 in1014.6 mb - 0.00 in0.0 mm 0.00 in0.0 mm
04:47 PM 77.5°F25.3°C 53.2°F11.8°C 43% 7.4 mph S11.9 kmh S 8.3 mph13.4 kmh 29.96 in1014.6 mb - 0.00 in0.0 mm 0.00 in0.0 mm
04:42 PM 77.5°F25.3°C 53.2°F11.8°C 43% 8.9 mph SW14.3 kmh SW 6.5 mph10.5 kmh 29.96 in1014.6 mb - 0.00 in0.0 mm 0.00 in0.0 mm
04:37 PM 77.5°F25.3°C 52.7°F11.5°C 42% 8.9 mph S14.3 kmh S 6.7 mph10.8 kmh 29.96 in1014.6 mb - 0.00 in0.0 mm 0.00 in0.0 mm
04:32 PM 77.7°F25.4°C 52.9°F11.6°C 42% 5.1 mph S8.2 kmh S 6.0 mph9.7 kmh 29.96 in1014.6 mb - 0.00 in0.0 mm 0.00 in0.0 mm
04:27 PM 77.9°F25.5°C 53.1°F11.7°C 42% 9.2 mph SSE14.8 kmh SSE 11.0 mph17.7 kmh 29.96 in1014.6 mb - 0.00 in0.0 mm 0.00 in0.0 mm
04:22 PM 77.7°F25.4°C 52.9°F11.6°C 42% 7.4 mph S11.9 kmh S 7.8 mph12.6 kmh 29.96 in1014.6 mb - 0.00 in0.0 mm 0.00 in0.0 mm
04:17 PM 77.7°F25.4°C 52.9°F11.6°C 42% 8.3 mph S13.4 kmh S 6.0 mph9.7 kmh 29.96 in1014.6 mb - 0.00 in0.0 mm 0.00 in0.0 mm
04:12 PM 77.9°F25.5°C 52.3°F11.3°C 41% 5.4 mph SE8.7 kmh SE 6.0 mph9.7 kmh 29.96 in1014.6 mb - 0.00 in0.0 mm 0.00 in0.0 mm
04:07 PM 77.9°F25.5°C 52.3°F11.3°C 41% 6.3 mph S10.1 kmh S 7.6 mph12.2 kmh 29.96 in1014.6 mb - 0.00 in0.0 mm 0.00 in0.0 mm
04:02 PM 77.7°F25.4°C 52.2°F11.2°C 41% 6.9 mph S11.1 kmh S 7.6 mph12.2 kmh 29.96 in1014.6 mb - 0.00 in0.0 mm 0.00 in0.0 mm
03:57 PM 77.7°F25.4°C 52.2°F11.2°C 41% 9.8 mph S15.8 kmh S 5.4 mph8.7 kmh 29.96 in1014.6 mb - 0.00 in0.0 mm 0.00 in0.0 mm
03:52 PM 77.7°F25.4°C 52.2°F11.2°C 41% 8.5 mph SE13.7 kmh SE 6.0 mph9.7 kmh 29.96 in1014.6 mb - 0.00 in0.0 mm 0.00 in0.0 mm
03:47 PM 77.7°F25.4°C 51.4°F10.8°C 40% 11.2 mph S18.0 kmh S 10.7 mph17.2 kmh 29.96 in1014.6 mb - 0.00 in0.0 mm 0.00 in0.0 mm
03:42 PM 78.1°F25.6°C 51.8°F11.0°C 40% 6.3 mph SE10.1 kmh SE 6.5 mph10.5 kmh 29.96 in1014.6 mb - 0.00 in0.0 mm 0.00 in0.0 mm
03:37 PM 78.1°F25.6°C 51.8°F11.0°C 40% 6.9 mph SW11.1 kmh SW 5.8 mph9.3 kmh 29.96 in1014.6 mb - 0.00 in0.0 mm 0.00 in0.0 mm
03:32 PM 77.9°F25.5°C 50.9°F10.5°C 39% 7.8 mph S12.6 kmh S 5.1 mph8.2 kmh 29.96 in1014.6 mb - 0.00 in0.0 mm 0.00 in0.0 mm
03:27 PM 78.3°F25.7°C 51.3°F10.7°C 39% 7.2 mph S11.6 kmh S 12.8 mph20.6 kmh 29.96 in1014.6 mb - 0.00 in0.0 mm 0.00 in0.0 mm
03:22 PM 77.5°F25.3°C 50.7°F10.4°C 39% 6.5 mph SE10.5 kmh SE 7.8 mph12.6 kmh 29.96 in1014.6 mb - 0.00 in0.0 mm 0.00 in0.0 mm
03:17 PM 77.9°F25.5°C 50.2°F10.1°C 38% 8.1 mph SE13.0 kmh SE 10.1 mph16.3 kmh 29.99 in1015.6 mb - 0.00 in0.0 mm 0.00 in0.0 mm
03:12 PM 78.1°F25.6°C 51.1°F10.6°C 39% 7.2 mph SW11.6 kmh SW 3.8 mph6.1 kmh 29.99 in1015.6 mb - 0.00 in0.0 mm 0.00 in0.0 mm
03:07 PM 78.1°F25.6°C 51.1°F10.6°C 39% 5.6 mph S9.0 kmh S 7.6 mph12.2 kmh 29.99 in1015.6 mb - 0.00 in0.0 mm 0.00 in0.0 mm
03:02 PM 77.9°F25.5°C 50.2°F10.1°C 38% 10.3 mph SW16.6 kmh SW 5.6 mph9.0 kmh 29.99 in1015.6 mb - 0.00 in0.0 mm 0.00 in0.0 mm
02:57 PM 78.3°F25.7°C 50.5°F10.3°C 38% 6.7 mph S10.8 kmh S 5.4 mph8.7 kmh 29.99 in1015.6 mb - 0.00 in0.0 mm 0.00 in0.0 mm
02:52 PM 78.1°F25.6°C 50.4°F10.2°C 38% 5.6 mph SE9.0 kmh SE 5.4 mph8.7 kmh 29.99 in1015.6 mb - 0.00 in0.0 mm 0.00 in0.0 mm
02:47 PM 78.3°F25.7°C 50.5°F10.3°C 38% 6.9 mph SSE11.1 kmh SSE 8.7 mph14.0 kmh 29.99 in1015.6 mb - 0.00 in0.0 mm 0.00 in0.0 mm
02:42 PM 77.9°F25.5°C 50.2°F10.1°C 38% 5.8 mph SE9.3 kmh SE 3.8 mph6.1 kmh 29.99 in1015.6 mb - 0.00 in0.0 mm 0.00 in0.0 mm
02:37 PM 77.9°F25.5°C 50.2°F10.1°C 38% 3.8 mph SE6.1 kmh SE 0.7 mph1.1 kmh 29.99 in1015.6 mb - 0.00 in0.0 mm 0.00 in0.0 mm
02:32 PM 77.9°F25.5°C 50.2°F10.1°C 38% 2.7 mph S4.3 kmh S 4.0 mph6.4 kmh 29.99 in1015.6 mb - 0.00 in0.0 mm 0.00 in0.0 mm
02:27 PM 78.4°F25.8°C 50.7°F10.4°C 38% 4.5 mph SSW7.2 kmh SSW 3.1 mph5.0 kmh 29.99 in1015.6 mb - 0.00 in0.0 mm 0.00 in0.0 mm
02:22 PM 77.7°F25.4°C 50.2°F10.1°C 38% 3.4 mph SW5.5 kmh SW 4.3 mph6.9 kmh 29.99 in1015.6 mb - 0.00 in0.0 mm 0.00 in0.0 mm
02:17 PM 77.9°F25.5°C 50.2°F10.1°C 38% 5.6 mph E9.0 kmh E 8.5 mph13.7 kmh 29.99 in1015.6 mb - 0.00 in0.0 mm 0.00 in0.0 mm
02:12 PM 78.1°F25.6°C 50.4°F10.2°C 38% 3.6 mph S5.8 kmh S 8.5 mph13.7 kmh 29.99 in1015.6 mb - 0.00 in0.0 mm 0.00 in0.0 mm
02:07 PM 77.5°F25.3°C 50.0°F10.0°C 38% 4.3 mph SW6.9 kmh SW 4.7 mph7.6 kmh 29.99 in1015.6 mb - 0.00 in0.0 mm 0.00 in0.0 mm
02:02 PM 77.2°F25.1°C 50.4°F10.2°C 39% 6.0 mph SE9.7 kmh SE 4.7 mph7.6 kmh 29.96 in1014.6 mb - 0.00 in0.0 mm 0.00 in0.0 mm
01:57 PM 77.0°F25.0°C 50.2°F10.1°C 39% 6.5 mph SE10.5 kmh SE 7.8 mph12.6 kmh 29.96 in1014.6 mb - 0.00 in0.0 mm 0.00 in0.0 mm
01:52 PM 77.0°F25.0°C 50.2°F10.1°C 39% 5.8 mph S9.3 kmh S 3.4 mph5.5 kmh 29.96 in1014.6 mb - 0.00 in0.0 mm 0.00 in0.0 mm
01:47 PM 76.6°F24.8°C 50.5°F10.3°C 40% 4.0 mph 6.4 kmh 1.3 mph2.1 kmh 29.99 in1015.6 mb - 0.00 in0.0 mm 0.00 in0.0 mm
01:42 PM 76.6°F24.8°C 50.5°F10.3°C 40% 6.9 mph SE11.1 kmh SE 9.8 mph15.8 kmh 29.99 in1015.6 mb - 0.00 in0.0 mm 0.00 in0.0 mm
01:37 PM 76.6°F24.8°C 50.5°F10.3°C 40% 6.0 mph SE9.7 kmh SE 8.3 mph13.4 kmh 29.99 in1015.6 mb - 0.00 in0.0 mm 0.00 in0.0 mm
01:32 PM 76.3°F24.6°C 50.9°F10.5°C 41% 2.5 mph SE4.0 kmh SE 2.2 mph3.5 kmh 29.99 in1015.6 mb - 0.00 in0.0 mm 0.00 in0.0 mm
01:27 PM 76.5°F24.7°C 51.1°F10.6°C 41% 4.5 mph SE7.2 kmh SE 3.8 mph6.1 kmh 29.99 in1015.6 mb - 0.00 in0.0 mm 0.00 in0.0 mm
01:22 PM 76.3°F24.6°C 51.4°F10.8°C 42% 1.1 mph SE1.8 kmh SE 2.5 mph4.0 kmh 29.99 in1015.6 mb - 0.00 in0.0 mm 0.00 in0.0 mm
01:17 PM 75.4°F24.1°C 50.7°F10.4°C 42% 3.4 mph SE5.5 kmh SE 3.6 mph5.8 kmh 29.99 in1015.6 mb - 0.00 in0.0 mm 0.00 in0.0 mm
01:12 PM 75.4°F24.1°C 50.7°F10.4°C 42% 2.0 mph WSW3.2 kmh WSW -- 29.99 in1015.6 mb - 0.00 in0.0 mm 0.00 in0.0 mm
01:07 PM 75.2°F24.0°C 50.5°F10.3°C 42% 2.7 mph SE4.3 kmh SE 3.4 mph5.5 kmh 29.99 in1015.6 mb - 0.00 in0.0 mm 0.00 in0.0 mm
01:02 PM 75.0°F23.9°C 51.1°F10.6°C 43% 4.5 mph SE7.2 kmh SE 3.1 mph5.0 kmh 30.01 in1016.3 mb - 0.00 in0.0 mm 0.00 in0.0 mm
12:57 PM 75.0°F23.9°C 51.1°F10.6°C 43% 4.0 mph S6.4 kmh S 6.0 mph9.7 kmh 30.01 in1016.3 mb - 0.00 in0.0 mm 0.00 in0.0 mm
12:52 PM 74.5°F23.6°C 50.5°F10.3°C 43% 4.5 mph SSE7.2 kmh SSE 6.5 mph10.5 kmh 30.01 in1016.3 mb - 0.00 in0.0 mm 0.00 in0.0 mm
12:47 PM 74.7°F23.7°C 50.7°F10.4°C 43% 2.5 mph SW4.0 kmh SW 2.9 mph4.7 kmh 30.01 in1016.3 mb - 0.00 in0.0 mm 0.00 in0.0 mm
12:42 PM 74.8°F23.8°C 51.4°F10.8°C 44% 2.2 mph SW3.5 kmh SW 2.9 mph4.7 kmh 30.01 in1016.3 mb - 0.00 in0.0 mm 0.00 in0.0 mm
12:37 PM 74.1°F23.4°C 50.9°F10.5°C 44% 3.1 mph SW5.0 kmh SW 3.8 mph6.1 kmh 30.01 in1016.3 mb - 0.00 in0.0 mm 0.00 in0.0 mm
12:32 PM 73.9°F23.3°C 50.0°F10.0°C 43% 1.1 mph SW1.8 kmh SW -- 30.01 in1016.3 mb - 0.00 in0.0 mm 0.00 in0.0 mm
12:27 PM 74.1°F23.4°C 50.2°F10.1°C 43% 2.2 mph SSE3.5 kmh SSE 4.7 mph7.6 kmh 30.01 in1016.3 mb - 0.00 in0.0 mm 0.00 in0.0 mm
12:22 PM 73.8°F23.2°C 49.8°F9.9°C 43% Calm Calm -- 30.01 in1016.3 mb - 0.00 in0.0 mm 0.00 in0.0 mm
12:17 PM 72.7°F22.6°C 49.5°F9.7°C 44% Calm Calm -- 30.01 in1016.3 mb - 0.00 in0.0 mm 0.00 in0.0 mm
12:12 PM 72.3°F22.4°C 49.8°F9.9°C 45% Calm Calm -- 30.01 in1016.3 mb - 0.00 in0.0 mm 0.00 in0.0 mm
12:07 PM 71.8°F22.1°C 49.3°F9.6°C 45% Calm Calm -- 30.01 in1016.3 mb - 0.00 in0.0 mm 0.00 in0.0 mm
12:02 PM 71.4°F21.9°C 48.9°F9.4°C 45% Calm Calm -- 30.01 in1016.3 mb - 0.00 in0.0 mm 0.00 in0.0 mm
11:57 AM 70.9°F21.6°C 49.1°F9.5°C 46% 0.9 mph SE1.4 kmh SE 1.1 mph1.8 kmh 30.01 in1016.3 mb - 0.00 in0.0 mm 0.00 in0.0 mm
11:52 AM 70.5°F21.4°C 48.7°F9.3°C 46% Calm Calm -- 30.01 in1016.3 mb - 0.00 in0.0 mm 0.00 in0.0 mm
11:47 AM 70.5°F21.4°C 48.2°F9.0°C 45% Calm Calm -- 30.04 in1017.3 mb - 0.00 in0.0 mm 0.00 in0.0 mm
11:42 AM 70.0°F21.1°C 48.9°F9.4°C 47% Calm Calm -- 30.04 in1017.3 mb - 0.00 in0.0 mm 0.00 in0.0 mm
11:37 AM 69.3°F20.7°C 47.7°F8.7°C 46% Calm Calm -- 30.04 in1017.3 mb - 0.00 in0.0 mm 0.00 in0.0 mm
11:32 AM 69.1°F20.6°C 48.0°F8.9°C 47% Calm Calm -- 30.04 in1017.3 mb - 0.00 in0.0 mm 0.00 in0.0 mm
11:27 AM 69.1°F20.6°C 48.0°F8.9°C 47% Calm Calm 2.0 mph3.2 kmh 30.04 in1017.3 mb - 0.00 in0.0 mm 0.00 in0.0 mm
11:22 AM 68.7°F20.4°C 47.7°F8.7°C 47% 1.1 mph E1.8 kmh E -- 30.04 in1017.3 mb - 0.00 in0.0 mm 0.00 in0.0 mm
11:17 AM 68.2°F20.1°C 47.1°F8.4°C 47% Calm Calm -- 30.04 in1017.3 mb - 0.00 in0.0 mm 0.00 in0.0 mm
11:12 AM 67.8°F19.9°C 46.9°F8.3°C 47% Calm Calm -- 30.04 in1017.3 mb - 0.00 in0.0 mm 0.00 in0.0 mm
11:07 AM 67.6°F19.8°C 47.3°F8.5°C 48% Calm Calm 3.1 mph5.0 kmh 30.04 in1017.3 mb - 0.00 in0.0 mm 0.00 in0.0 mm
11:02 AM 67.1°F19.5°C 46.8°F8.2°C 48% Calm Calm -- 30.04 in1017.3 mb - 0.00 in0.0 mm 0.00 in0.0 mm
10:57 AM 66.6°F19.2°C 46.2°F7.9°C 48% 1.1 mph SSW1.8 kmh SSW 2.7 mph4.3 kmh 30.04 in1017.3 mb - 0.00 in0.0 mm 0.00 in0.0 mm
10:52 AM 65.8°F18.8°C 46.2°F7.9°C 49% Calm Calm -- 30.04 in1017.3 mb - 0.00 in0.0 mm 0.00 in0.0 mm
10:47 AM 65.5°F18.6°C 45.9°F7.7°C 49% 1.1 mph E1.8 kmh E -- 30.04 in1017.3 mb - 0.00 in0.0 mm 0.00 in0.0 mm
10:42 AM 64.9°F18.3°C 45.9°F7.7°C 50% Calm Calm -- 30.04 in1017.3 mb - 0.00 in0.0 mm 0.00 in0.0 mm
10:37 AM 64.4°F18.0°C 45.3°F7.4°C 50% Calm Calm -- 30.04 in1017.3 mb - 0.00 in0.0 mm 0.00 in0.0 mm
10:32 AM 64.0°F17.8°C 45.5°F7.5°C 51% Calm Calm -- 30.04 in1017.3 mb - 0.00 in0.0 mm 0.00 in0.0 mm
10:27 AM 63.5°F17.5°C 44.6°F7.0°C 50% Calm Calm -- 30.04 in1017.3 mb - 0.00 in0.0 mm 0.00 in0.0 mm
10:22 AM 63.1°F17.3°C 43.7°F6.5°C 49% 3.4 mph E5.5 kmh E 2.7 mph4.3 kmh 30.04 in1017.3 mb - 0.00 in0.0 mm 0.00 in0.0 mm
10:17 AM 63.9°F17.7°C 45.0°F7.2°C 50% 1.1 mph E1.8 kmh E -- 30.01 in1016.3 mb - 0.00 in0.0 mm 0.00 in0.0 mm
10:12 AM 63.1°F17.3°C 44.2°F6.8°C 50% Calm Calm -- 30.01 in1016.3 mb - 0.00 in0.0 mm 0.00 in0.0 mm
10:07 AM 62.6°F17.0°C 44.8°F7.1°C 52% 1.3 mph SE2.1 kmh SE -- 30.01 in1016.3 mb - 0.00 in0.0 mm 0.00 in0.0 mm
10:02 AM 62.4°F16.9°C 44.6°F7.0°C 52% Calm Calm -- 30.04 in1017.3 mb - 0.00 in0.0 mm 0.00 in0.0 mm
09:57 AM 61.7°F16.5°C 44.4°F6.9°C 53% Calm Calm -- 30.04 in1017.3 mb - 0.00 in0.0 mm 0.00 in0.0 mm
09:52 AM 61.5°F16.4°C 44.8°F7.1°C 54% Calm Calm -- 30.04 in1017.3 mb - 0.00 in0.0 mm 0.00 in0.0 mm
09:47 AM 60.8°F16.0°C 45.5°F7.5°C 57% Calm Calm -- 30.04 in1017.3 mb - 0.00 in0.0 mm 0.00 in0.0 mm
09:42 AM 60.4°F15.8°C 46.0°F7.8°C 59% Calm Calm -- 30.04 in1017.3 mb - 0.00 in0.0 mm 0.00 in0.0 mm
09:37 AM 60.1°F15.6°C 46.6°F8.1°C 61% Calm Calm -- 30.04 in1017.3 mb - 0.00 in0.0 mm 0.00 in0.0 mm
09:32 AM 59.4°F15.2°C 45.5°F7.5°C 60% 0.9 mph 1.4 kmh -- 30.04 in1017.3 mb - 0.00 in0.0 mm 0.00 in0.0 mm
09:27 AM 58.6°F14.8°C 46.6°F8.1°C 64% Calm Calm -- 30.04 in1017.3 mb - 0.00 in0.0 mm 0.00 in0.0 mm
09:22 AM 57.9°F14.4°C 45.5°F7.5°C 63% Calm Calm -- 30.04 in1017.3 mb - 0.00 in0.0 mm 0.00 in0.0 mm
09:17 AM 57.7°F14.3°C 45.3°F7.4°C 63% Calm Calm -- 30.04 in1017.3 mb - 0.00 in0.0 mm 0.00 in0.0 mm
09:12 AM 57.6°F14.2°C 44.6°F7.0°C 62% Calm Calm -- 30.04 in1017.3 mb - 0.00 in0.0 mm 0.00 in0.0 mm
09:07 AM 57.4°F14.1°C 45.0°F7.2°C 63% Calm Calm -- 30.04 in1017.3 mb - 0.00 in0.0 mm 0.00 in0.0 mm
09:02 AM 57.0°F13.9°C 44.1°F6.7°C 62% 1.1 mph E1.8 kmh E -- 30.04 in1017.3 mb - 0.00 in0.0 mm 0.00 in0.0 mm
08:57 AM 56.8°F13.8°C 44.4°F6.9°C 63% Calm Calm 0.9 mph1.4 kmh 30.04 in1017.3 mb - 0.00 in0.0 mm 0.00 in0.0 mm
08:52 AM 56.8°F13.8°C 44.8°F7.1°C 64% Calm Calm -- 30.04 in1017.3 mb - 0.00 in0.0 mm 0.00 in0.0 mm
08:47 AM 56.8°F13.8°C 45.1°F7.3°C 65% Calm Calm -- 30.04 in1017.3 mb - 0.00 in0.0 mm 0.00 in0.0 mm
08:42 AM 56.7°F13.7°C 45.0°F7.2°C 65% Calm Calm -- 30.04 in1017.3 mb - 0.00 in0.0 mm 0.00 in0.0 mm
08:37 AM 55.9°F13.3°C 44.4°F6.9°C 65% Calm Calm -- 30.04 in1017.3 mb - 0.00 in0.0 mm 0.00 in0.0 mm
08:32 AM 56.1°F13.4°C 44.6°F7.0°C 65% Calm Calm -- 30.04 in1017.3 mb - 0.00 in0.0 mm 0.00 in0.0 mm
08:27 AM 55.2°F12.9°C 44.1°F6.7°C 66% Calm Calm -- 30.04 in1017.3 mb - 0.00 in0.0 mm 0.00 in0.0 mm
08:22 AM 55.0°F12.8°C 43.2°F6.2°C 64% Calm Calm -- 30.04 in1017.3 mb - 0.00 in0.0 mm 0.00 in0.0 mm
08:17 AM 56.1°F13.4°C 45.3°F7.4°C 67% Calm Calm 1.1 mph1.8 kmh 30.04 in1017.3 mb - 0.00 in0.0 mm 0.00 in0.0 mm
08:12 AM 55.6°F13.1°C 44.8°F7.1°C 67% Calm Calm -- 30.04 in1017.3 mb - 0.00 in0.0 mm 0.00 in0.0 mm
08:07 AM 55.4°F13.0°C 45.9°F7.7°C 70% Calm Calm -- 30.04 in1017.3 mb - 0.00 in0.0 mm 0.00 in0.0 mm
08:02 AM 54.5°F12.5°C 45.7°F7.6°C 72% Calm Calm -- 30.01 in1016.3 mb - 0.00 in0.0 mm 0.00 in0.0 mm
07:57 AM 54.0°F12.2°C 45.9°F7.7°C 74% Calm Calm -- 30.01 in1016.3 mb - 0.00 in0.0 mm 0.00 in0.0 mm
07:52 AM 53.8°F12.1°C 46.8°F8.2°C 77% Calm Calm -- 30.01 in1016.3 mb - 0.00 in0.0 mm 0.00 in0.0 mm
07:47 AM 53.1°F11.7°C 45.3°F7.4°C 75% Calm Calm -- 30.04 in1017.3 mb - 0.00 in0.0 mm 0.00 in0.0 mm
07:42 AM 53.2°F11.8°C 45.9°F7.7°C 76% Calm Calm -- 30.04 in1017.3 mb - 0.00 in0.0 mm 0.00 in0.0 mm
07:37 AM 53.2°F11.8°C 46.2°F7.9°C 77% Calm Calm -- 30.04 in1017.3 mb - 0.00 in0.0 mm 0.00 in0.0 mm
07:32 AM 53.1°F11.7°C 46.0°F7.8°C 77% Calm Calm -- 30.04 in1017.3 mb - 0.00 in0.0 mm 0.00 in0.0 mm
07:27 AM 52.9°F11.6°C 45.9°F7.7°C 77% Calm Calm -- 30.04 in1017.3 mb - 0.00 in0.0 mm 0.00 in0.0 mm
07:22 AM 52.9°F11.6°C 45.9°F7.7°C 77% Calm Calm -- 30.04 in1017.3 mb - 0.00 in0.0 mm 0.00 in0.0 mm
07:17 AM 52.7°F11.5°C 45.0°F7.2°C 75% Calm Calm -- 30.04 in1017.3 mb - 0.00 in0.0 mm 0.00 in0.0 mm
07:12 AM 52.7°F11.5°C 45.0°F7.2°C 75% Calm Calm 2.0 mph3.2 kmh 30.04 in1017.3 mb - 0.00 in0.0 mm 0.00 in0.0 mm
07:07 AM 52.7°F11.5°C 45.0°F7.2°C 75% Calm Calm -- 30.04 in1017.3 mb - 0.00 in0.0 mm 0.00 in0.0 mm
07:02 AM 52.7°F11.5°C 45.0°F7.2°C 75% Calm Calm -- 30.04 in1017.3 mb - 0.00 in0.0 mm 0.00 in0.0 mm
06:57 AM 52.9°F11.6°C 44.4°F6.9°C 73% Calm Calm -- 30.04 in1017.3 mb - 0.00 in0.0 mm 0.00 in0.0 mm
06:52 AM 53.2°F11.8°C 44.8°F7.1°C 73% Calm Calm -- 30.04 in1017.3 mb - 0.00 in0.0 mm 0.00 in0.0 mm
06:47 AM 53.2°F11.8°C 44.4°F6.9°C 72% Calm Calm -- 30.04 in1017.3 mb - 0.00 in0.0 mm 0.00 in0.0 mm
06:42 AM 53.6°F12.0°C 44.8°F7.1°C 72% Calm Calm -- 30.04 in1017.3 mb - 0.00 in0.0 mm 0.00 in0.0 mm
06:37 AM 53.8°F12.1°C 45.0°F7.2°C 72% Calm Calm -- 30.04 in1017.3 mb - 0.00 in0.0 mm 0.00 in0.0 mm
06:32 AM 53.8°F12.1°C 44.6°F7.0°C 71% Calm Calm -- 30.04 in1017.3 mb - 0.00 in0.0 mm 0.00 in0.0 mm
06:27 AM 53.8°F12.1°C 45.0°F7.2°C 72% Calm Calm -- 30.04 in1017.3 mb - 0.00 in0.0 mm 0.00 in0.0 mm
06:22 AM 53.6°F12.0°C 44.4°F6.9°C 71% Calm Calm -- 30.04 in1017.3 mb - 0.00 in0.0 mm 0.00 in0.0 mm
06:17 AM 54.1°F12.3°C 45.3°F7.4°C 72% Calm Calm -- 30.04 in1017.3 mb - 0.00 in0.0 mm 0.00 in0.0 mm
06:12 AM 53.8°F12.1°C 45.0°F7.2°C 72% Calm Calm -- 30.04 in1017.3 mb - 0.00 in0.0 mm 0.00 in0.0 mm
06:07 AM 54.0°F12.2°C 44.8°F7.1°C 71% Calm Calm -- 30.04 in1017.3 mb - 0.00 in0.0 mm 0.00 in0.0 mm
06:02 AM 53.8°F12.1°C 45.3°F7.4°C 73% Calm Calm -- 30.04 in1017.3 mb - 0.00 in0.0 mm 0.00 in0.0 mm
05:57 AM 53.4°F11.9°C 45.0°F7.2°C 73% Calm Calm -- 30.04 in1017.3 mb - 0.00 in0.0 mm 0.00 in0.0 mm
05:52 AM 53.6°F12.0°C 45.1°F7.3°C 73% Calm Calm -- 30.04 in1017.3 mb - 0.00 in0.0 mm 0.00 in0.0 mm
05:47 AM 53.4°F11.9°C 45.0°F7.2°C 73% Calm Calm -- 30.04 in1017.3 mb - 0.00 in0.0 mm 0.00 in0.0 mm
05:42 AM 53.2°F11.8°C 45.1°F7.3°C 74% Calm Calm -- 30.04 in1017.3 mb - 0.00 in0.0 mm 0.00 in0.0 mm
05:37 AM 52.9°F11.6°C 44.8°F7.1°C 74% Calm Calm -- 30.04 in1017.3 mb - 0.00 in0.0 mm 0.00 in0.0 mm
05:32 AM 52.7°F11.5°C 45.0°F7.2°C 75% Calm Calm -- 30.04 in1017.3 mb - 0.00 in0.0 mm 0.00 in0.0 mm
05:27 AM 53.2°F11.8°C 44.4°F6.9°C 72% Calm Calm -- 30.04 in1017.3 mb - 0.00 in0.0 mm 0.00 in0.0 mm
05:22 AM 53.6°F12.0°C 45.9°F7.7°C 75% Calm Calm -- 30.04 in1017.3 mb - 0.00 in0.0 mm 0.00 in0.0 mm
05:17 AM 53.1°F11.7°C 45.0°F7.2°C 74% Calm Calm -- 30.01 in1016.3 mb - 0.00 in0.0 mm 0.00 in0.0 mm
05:12 AM 52.5°F11.4°C 44.8°F7.1°C 75% Calm Calm -- 30.01 in1016.3 mb - 0.00 in0.0 mm 0.00 in0.0 mm
05:07 AM 52.5°F11.4°C 44.1°F6.7°C 73% Calm Calm -- 30.01 in1016.3 mb - 0.00 in0.0 mm 0.00 in0.0 mm
05:02 AM 54.0°F12.2°C 44.8°F7.1°C 71% Calm Calm -- 30.04 in1017.3 mb - 0.00 in0.0 mm 0.00 in0.0 mm
04:57 AM 54.0°F12.2°C 44.4°F6.9°C 70% Calm Calm -- 30.04 in1017.3 mb - 0.00 in0.0 mm 0.00 in0.0 mm
04:52 AM 54.5°F12.5°C 44.6°F7.0°C 69% Calm Calm -- 30.04 in1017.3 mb - 0.00 in0.0 mm 0.00 in0.0 mm
04:47 AM 54.7°F12.6°C 45.1°F7.3°C 70% Calm Calm -- 30.04 in1017.3 mb - 0.00 in0.0 mm 0.00 in0.0 mm
04:42 AM 54.7°F12.6°C 45.1°F7.3°C 70% Calm Calm -- 30.04 in1017.3 mb - 0.00 in0.0 mm 0.00 in0.0 mm
04:37 AM 54.5°F12.5°C 45.0°F7.2°C 70% Calm Calm -- 30.04 in1017.3 mb - 0.00 in0.0 mm 0.00 in0.0 mm
04:32 AM 54.3°F12.4°C 44.8°F7.1°C 70% Calm Calm -- 30.04 in1017.3 mb - 0.00 in0.0 mm 0.00 in0.0 mm
04:27 AM 54.3°F12.4°C 44.8°F7.1°C 70% Calm Calm -- 30.04 in1017.3 mb - 0.00 in0.0 mm 0.00 in0.0 mm
04:22 AM 54.3°F12.4°C 45.1°F7.3°C 71% Calm Calm -- 30.04 in1017.3 mb - 0.00 in0.0 mm 0.00 in0.0 mm
04:17 AM 54.5°F12.5°C 45.3°F7.4°C 71% Calm Calm -- 30.04 in1017.3 mb - 0.00 in0.0 mm 0.00 in0.0 mm
04:12 AM 54.3°F12.4°C 45.5°F7.5°C 72% Calm Calm -- 30.04 in1017.3 mb - 0.00 in0.0 mm 0.00 in0.0 mm
04:07 AM 54.0°F12.2°C 45.1°F7.3°C 72% Calm Calm -- 30.04 in1017.3 mb - 0.00 in0.0 mm 0.00 in0.0 mm
04:02 AM 53.6°F12.0°C 45.1°F7.3°C 73% Calm Calm -- 30.04 in1017.3 mb - 0.00 in0.0 mm 0.00 in0.0 mm
03:57 AM 53.2°F11.8°C 44.8°F7.1°C 73% 0.9 mph 1.4 kmh -- 30.04 in1017.3 mb - 0.00 in0.0 mm 0.00 in0.0 mm
03:52 AM 53.1°F11.7°C 44.2°F6.8°C 72% 4.7 mph NNW7.6 kmh NNW 4.9 mph7.9 kmh 30.04 in1017.3 mb - 0.00 in0.0 mm 0.00 in0.0 mm
03:47 AM 53.6°F12.0°C 44.4°F6.9°C 71% Calm Calm -- 30.04 in1017.3 mb - 0.00 in0.0 mm 0.00 in0.0 mm
03:42 AM 53.8°F12.1°C 44.2°F6.8°C 70% Calm Calm 4.3 mph6.9 kmh 30.04 in1017.3 mb - 0.00 in0.0 mm 0.00 in0.0 mm
03:37 AM 54.0°F12.2°C 44.8°F7.1°C 71% 1.1 mph NW1.8 kmh NW -- 30.04 in1017.3 mb - 0.00 in0.0 mm 0.00 in0.0 mm
03:32 AM 54.0°F12.2°C 44.8°F7.1°C 71% 2.9 mph NW4.7 kmh NW 3.8 mph6.1 kmh 30.04 in1017.3 mb - 0.00 in0.0 mm 0.00 in0.0 mm
03:27 AM 54.1°F12.3°C 45.0°F7.2°C 71% 4.5 mph NW7.2 kmh NW 3.4 mph5.5 kmh 30.04 in1017.3 mb - 0.00 in0.0 mm 0.00 in0.0 mm
03:22 AM 54.9°F12.7°C 46.0°F7.8°C 72% Calm Calm -- 30.04 in1017.3 mb - 0.00 in0.0 mm 0.00 in0.0 mm
03:17 AM 54.9°F12.7°C 45.7°F7.6°C 71% 3.1 mph 5.0 kmh 4.7 mph7.6 kmh 30.04 in1017.3 mb - 0.00 in0.0 mm 0.00 in0.0 mm
03:12 AM 54.9°F12.7°C 46.4°F8.0°C 73% Calm Calm -- 30.04 in1017.3 mb - 0.00 in0.0 mm 0.00 in0.0 mm
03:07 AM 54.5°F12.5°C 45.7°F7.6°C 72% Calm Calm -- 30.04 in1017.3 mb - 0.00 in0.0 mm 0.00 in0.0 mm
03:02 AM 54.5°F12.5°C 45.7°F7.6°C 72% Calm Calm -- 30.04 in1017.3 mb - 0.00 in0.0 mm 0.00 in0.0 mm
02:57 AM 54.5°F12.5°C 45.7°F7.6°C 72% Calm Calm -- 30.04 in1017.3 mb - 0.00 in0.0 mm 0.00 in0.0 mm
02:52 AM 54.5°F12.5°C 45.7°F7.6°C 72% 2.9 mph 4.7 kmh -- 30.04 in1017.3 mb - 0.00 in0.0 mm 0.00 in0.0 mm
02:47 AM 54.7°F12.6°C 45.5°F7.5°C 71% Calm Calm -- 30.04 in1017.3 mb - 0.00 in0.0 mm 0.00 in0.0 mm
02:42 AM 54.5°F12.5°C 45.7°F7.6°C 72% 0.9 mph 1.4 kmh -- 30.04 in1017.3 mb - 0.00 in0.0 mm 0.00 in0.0 mm
02:37 AM 54.3°F12.4°C 45.1°F7.3°C 71% 3.8 mph NW6.1 kmh NW 3.6 mph5.8 kmh 30.04 in1017.3 mb - 0.00 in0.0 mm 0.00 in0.0 mm
02:32 AM 54.5°F12.5°C 45.3°F7.4°C 71% 4.7 mph 7.6 kmh 4.3 mph6.9 kmh 30.04 in1017.3 mb - 0.00 in0.0 mm 0.00 in0.0 mm
02:27 AM 54.7°F12.6°C 45.1°F7.3°C 70% Calm Calm 4.7 mph7.6 kmh 30.04 in1017.3 mb - 0.00 in0.0 mm 0.00 in0.0 mm
02:22 AM 55.4°F13.0°C 45.9°F7.7°C 70% Calm Calm -- 30.04 in1017.3 mb - 0.00 in0.0 mm 0.00 in0.0 mm
02:17 AM 55.6°F13.1°C 46.0°F7.8°C 70% 1.3 mph NW2.1 kmh NW -- 30.04 in1017.3 mb - 0.00 in0.0 mm 0.00 in0.0 mm
02:12 AM 55.4°F13.0°C 45.5°F7.5°C 69% Calm Calm -- 30.04 in1017.3 mb - 0.00 in0.0 mm 0.00 in0.0 mm
02:07 AM 55.6°F13.1°C 45.5°F7.5°C 69% Calm Calm -- 30.04 in1017.3 mb - 0.00 in0.0 mm 0.00 in0.0 mm
02:02 AM 55.6°F13.1°C 45.1°F7.3°C 68% Calm Calm -- 30.04 in1017.3 mb - 0.00 in0.0 mm 0.00 in0.0 mm
01:57 AM 55.9°F13.3°C 45.5°F7.5°C 68% Calm Calm -- 30.04 in1017.3 mb - 0.00 in0.0 mm 0.00 in0.0 mm
01:52 AM 56.1°F13.4°C 45.3°F7.4°C 67% Calm Calm -- 30.04 in1017.3 mb - 0.00 in0.0 mm 0.00 in0.0 mm
01:47 AM 56.5°F13.6°C 45.7°F7.6°C 67% Calm Calm -- 30.04 in1017.3 mb - 0.00 in0.0 mm 0.00 in0.0 mm
01:42 AM 56.5°F13.6°C 45.7°F7.6°C 67% 3.1 mph NW5.0 kmh NW 3.6 mph5.8 kmh 30.04 in1017.3 mb - 0.00 in0.0 mm 0.00 in0.0 mm
01:37 AM 56.8°F13.8°C 46.0°F7.8°C 67% Calm Calm -- 30.04 in1017.3 mb - 0.00 in0.0 mm 0.00 in0.0 mm
01:32 AM 57.2°F14.0°C 46.8°F8.2°C 68% Calm Calm -- 30.04 in1017.3 mb - 0.00 in0.0 mm 0.00 in0.0 mm
01:27 AM 56.8°F13.8°C 46.4°F8.0°C 68% Calm Calm -- 30.04 in1017.3 mb - 0.00 in0.0 mm 0.00 in0.0 mm
01:22 AM 57.0°F13.9°C 46.6°F8.1°C 68% Calm Calm -- 30.04 in1017.3 mb - 0.00 in0.0 mm 0.00 in0.0 mm
01:17 AM 57.4°F14.1°C 46.6°F8.1°C 67% Calm Calm -- 30.04 in1017.3 mb - 0.00 in0.0 mm 0.00 in0.0 mm
01:12 AM 58.1°F14.5°C 47.3°F8.5°C 67% Calm Calm -- 30.04 in1017.3 mb - 0.00 in0.0 mm 0.00 in0.0 mm
01:07 AM 57.6°F14.2°C 47.1°F8.4°C 68% Calm Calm -- 30.04 in1017.3 mb - 0.00 in0.0 mm 0.00 in0.0 mm
01:02 AM 57.7°F14.3°C 47.7°F8.7°C 69% Calm Calm -- 30.04 in1017.3 mb - 0.00 in0.0 mm 0.00 in0.0 mm
12:57 AM 57.9°F14.4°C 47.5°F8.6°C 68% Calm Calm 1.3 mph2.1 kmh 30.04 in1017.3 mb - 0.00 in0.0 mm 0.00 in0.0 mm
12:52 AM 58.3°F14.6°C 47.8°F8.8°C 68% 2.2 mph 3.5 kmh -- 30.04 in1017.3 mb - 0.00 in0.0 mm 0.00 in0.0 mm
12:47 AM 58.5°F14.7°C 48.0°F8.9°C 68% 1.1 mph NE1.8 kmh NE -- 30.04 in1017.3 mb - 0.00 in0.0 mm 0.00 in0.0 mm
12:42 AM 58.3°F14.6°C 47.8°F8.8°C 68% 0.9 mph 1.4 kmh 3.4 mph5.5 kmh 30.04 in1017.3 mb - 0.00 in0.0 mm 0.00 in0.0 mm
12:37 AM 58.3°F14.6°C 47.8°F8.8°C 68% Calm Calm -- 30.04 in1017.3 mb - 0.00 in0.0 mm 0.00 in0.0 mm
12:32 AM 58.1°F14.5°C 47.7°F8.7°C 68% Calm Calm -- 30.04 in1017.3 mb - 0.00 in0.0 mm 0.00 in0.0 mm
12:27 AM 58.1°F14.5°C 47.7°F8.7°C 68% Calm Calm -- 30.04 in1017.3 mb - 0.00 in0.0 mm 0.00 in0.0 mm
12:22 AM 58.3°F14.6°C 47.3°F8.5°C 67% Calm Calm -- 30.04 in1017.3 mb - 0.00 in0.0 mm 0.00 in0.0 mm
12:17 AM 58.3°F14.6°C 47.3°F8.5°C 67% 4.3 mph 6.9 kmh 2.5 mph4.0 kmh 30.04 in1017.3 mb - 0.00 in0.0 mm 0.00 in0.0 mm
12:12 AM 58.6°F14.8°C 47.3°F8.5°C 66% 3.1 mph 5.0 kmh 2.0 mph3.2 kmh 30.04 in1017.3 mb - 0.00 in0.0 mm 0.00 in0.0 mm
12:07 AM 58.8°F14.9°C 47.5°F8.6°C 66% 4.0 mph NE6.4 kmh NE 4.9 mph7.9 kmh 30.04 in1017.3 mb - 0.00 in0.0 mm 0.00 in0.0 mm
12:02 AM 59.0°F15.0°C 47.7°F8.7°C 66% 2.0 mph 3.2 kmh -- 30.01 in1016.3 mb - 0.00 in0.0 mm 0.00 in0.0 mm